Portada
METAR-TAF:

METAR-TAF

Aeroports :

Coolangatta, Austràlia

latitud: 28-10S, longitud: 153-30E, altitud: 6 m

Observació

L'informe es va fer fa 44 minuts, a les 06:30 UTC
Vent 9 kt del Est/Sud-Est
Temperatura 23°C
Humitat 57%
Pressió 1019 hPa
Visibilitat 10 km o més

METAR: YBCG 190630Z AUTO 11009KT 9999 // NCD 23/14 Q1019 RF00.0/000.0

Hora: 17:14 (07:14 UTC)

Pronòstic

L'informe es va fer fa 1 hora i 57 minuts, a les 05:17 UTC
Pronòstic vàlid del 19 a les 06 UTC al 20 a les 06 UTC
Vent 12 kt del Est/Sud-Est
Visibilitat 10 km o més
Núvols disperses a una alçada de 3000 ft
A partir de les 19 a les 0900 UTC
Vent 8 kt del Nord/Nord-Oest
Visibilitat 10 km o més
Núvols disperses a una alçada de 2000 ft
A partir de les 19 a les 2300 UTC
Vent 18 kt del Nord
Visibilitat 10 km o més
Escasses núvols a una alçada de 2500 ft

TAF: YBCG 190517Z 1906/2006 12012KT 9999 SCT030 FM190900 34008KT 9999 SCT020 FM192300 36018KT 9999 FEW025

Observacions i pronòstics meteorològics de més de 4000 aeroports (METAR i TAF).

Les estacions disponibles són els punts grocs i vermells al mapa.

Posi el ratolí al punt desitjat per veure el nom de l'estació.

Feu clic per veure les observacions i els pronòstics meteorològics.

Per canviar el mapa: feu clic els botons verds amb una creu de color negre per apropar; al botó verd amb un guió per allunyar la imatge; o en les fletxes verdes per a mapes adjacents.


METAR-TAF: